Siskiyou Pass Past Weather

Last 30 Days

 
High: 34ºf @3:54 PM    Low: 34ºf @3:54 PM     Approx. Precipitation / Rain Total: in.
Time (PST)Temp. (ºf)Humidity (%)Dew Point (ºf)Barometer (inHG)Wind Speed (mph)Wind DirectionWind Gust (mph)1hr. Precip / Rain Total (in.)Snow Depth
3:54 PM346121.98-3.48n10.43--
High: 51ºf @10:54 AM    Low: 25ºf @7:54 AM     Approx. Precipitation / Rain Total: in.
Time (PST)Temp. (ºf)Humidity (%)Dew Point (ºf)Barometer (inHG)Wind Speed (mph)Wind DirectionWind Gust (mph)1hr. Precip / Rain Total (in.)Snow Depth
10:54 AM514027.54-0.87wsw2.61--
9:54 AM455429.37---1.74--
8:54 AM357828.85---2.61--
7:54 AM259423.52---2.61--
6:54 AM259423.52---2.61--
5:54 AM269324.26-1.74nne3.48--
4:54 AM269123.74-0.87n2.61--
2:54 AM289025.45-2.61nne3.48--
1:54 AM289125.72-0.87n3.48--
12:54 AM289526.76-1.74n4.34--
High: 56ºf @1:54 PM    Low: 26ºf @6:54 AM     Approx. Precipitation / Rain Total: in.
Time (PST)Temp. (ºf)Humidity (%)Dew Point (ºf)Barometer (inHG)Wind Speed (mph)Wind DirectionWind Gust (mph)1hr. Precip / Rain Total (in.)Snow Depth
11:54 PM299126.71-0.87nne4.34--
10:54 PM318928.15-0.87nne2.61--
9:54 PM309127.7---2.61--
8:54 PM309027.43-0.87nne1.74--
7:54 PM328728.58-0.87nne3.48--
6:54 PM348429.68-0.87nne2.61--
5:54 PM397632.09-1.74ene2.61--
4:54 PM465832.06-0.87nw5.21--
3:54 PM515133.51-0.87w6.95--
2:54 PM554131.74-1.74wnw6.95--
1:54 PM563931.4-2.61wnw7.82--
12:54 PM534129.94-1.74nw8.69--
11:54 AM524330.2-3.48wnw9.56--
10:54 AM504931.6-2.61nw8.69--
9:54 AM465832.06-1.74wnw4.34--
8:54 AM337826.9-2.61ene5.21--
7:54 AM269123.74-2.61ne6.08--
6:54 AM268822.94-3.48ne5.21--
5:54 AM279024.47-3.48ne5.21--
4:54 AM278723.66-2.61ne4.34--
3:54 AM278924.2-2.61ne4.34--
2:54 AM278924.2-1.74e4.34--
1:54 AM288323.52-2.61ne5.21--
12:54 AM298324.5-2.61ne6.08--
High: 53ºf @2:54 PM    Low: 25ºf @7:54 AM     Approx. Precipitation / Rain Total: in.
Time (PST)Temp. (ºf)Humidity (%)Dew Point (ºf)Barometer (inHG)Wind Speed (mph)Wind DirectionWind Gust (mph)1hr. Precip / Rain Total (in.)Snow Depth
11:54 PM308526.05-2.61ne5.21--
10:54 PM298725.63-2.61ne4.34--
9:54 PM308526.05-2.61nne5.21--
8:54 PM318727.59-1.74ne4.34--
7:54 PM328427.72-2.61nne4.34--
6:54 PM338428.7-1.74nne3.48--
5:54 PM406629.57-1.74nnw6.08--
4:54 PM435929.66-1.74nw8.69--
3:54 PM494930.68-2.61wnw9.56--
2:54 PM534129.94-2.61wnw8.69--
1:54 PM524229.63-2.61nw11.3--
12:54 PM504529.5-4.34nw13.03--
11:54 AM494830.17-5.21nw11.3--
10:54 AM494930.68-2.61nw7.82--
9:54 AM436331.28-0.87se6.08--
8:54 AM328026.54-1.74e3.48--
7:54 AM259423.52-1.74ne4.34--
6:54 AM268822.94-2.61ne4.34--
5:54 AM269324.26-1.74nne4.34--
4:54 AM269324.26-2.61ne4.34--
3:54 AM278924.2-2.61ne4.34--
2:54 AM288824.91-1.74n5.21--
1:54 AM298825.9-2.61ne4.34--
12:54 AM298825.9-2.61nne4.34--
High: 51ºf @1:54 PM    Low: 27ºf @6:54 AM     Approx. Precipitation / Rain Total: in.
Time (PST)Temp. (ºf)Humidity (%)Dew Point (ºf)Barometer (inHG)Wind Speed (mph)Wind DirectionWind Gust (mph)1hr. Precip / Rain Total (in.)Snow Depth
11:54 PM308927.16-3.48ne5.21--
10:54 PM298825.9-1.74ne5.21--
9:54 PM318627.31-2.61ne5.21--
8:54 PM318527.03-2.61nne5.21--
7:54 PM318627.31-1.74nne4.34--
6:54 PM348429.68-2.61nne4.34--
5:54 PM388032.39-1.74ne5.21--
4:54 PM436532.05-1.74nnw6.95--
3:54 PM485633.06-2.61nw9.56--
2:54 PM505534.48-3.48nw11.3--
1:54 PM515334.48-4.34nw11.3--
12:54 PM515234-3.48wnw8.69--
11:54 AM486034.79-4.34nw10.43--
10:54 AM476134.26-4.34nw9.56--
9:54 AM447034.85-0.87ene2.61--
8:54 AM348830.83-1.74ene3.48--
7:54 AM279826.51-0.87ene3.48--
6:54 AM279626.01-2.61ne4.34--
5:54 AM289827.51-1.74ne4.34--
3:54 AM299928.75-1.74ne4.34--
2:54 AM299928.75-1.74nne4.34--
1:54 AM309729.25-0.87ne3.48--
12:54 AM329630.99-0.87nne3.48--
High: 56ºf @1:54 PM    Low: 31ºf @7:54 AM     Approx. Precipitation / Rain Total: in.
Time (PST)Temp. (ºf)Humidity (%)Dew Point (ºf)Barometer (inHG)Wind Speed (mph)Wind DirectionWind Gust (mph)1hr. Precip / Rain Total (in.)Snow Depth
11:54 PM319730.25-2.61ne4.34--
10:54 PM329129.68-0.87ne4.34--
9:54 PM398334.28-1.74sw6.95--
8:54 PM398534.88-3.48nne8.69--
7:54 PM398233.98-0.87nnw8.69--
6:54 PM407934.02-3.48ne8.69--
5:54 PM427333.98-0.87nw6.95--
4:54 PM466635.29-0.87nnw8.69--
3:54 PM505835.81-2.61wnw11.3--
2:54 PM544834.76-3.48wnw12.17--
1:54 PM564736.06-1.74se8.69--
12:54 PM535336.33-5.21se10.43--
11:54 AM545136.28-2.61se6.95--
10:54 AM525536.34-2.61se6.08--
9:54 AM456132.37---1.74--
8:54 AM377429.5---3.48--
7:54 AM318627.31-0.87ne4.34--
6:54 AM328126.84-1.74ne4.34--
5:54 AM347526.92-0.87nne8.69--
4:54 AM366926.83-0.87wnw7.82--
3:54 AM454625.48-2.61s14.77--
2:54 AM483924.24-6.95se16.51--
1:54 AM484125.44-8.69ese17.38--
12:54 AM484125.44-10.43se19.12--
High: 67ºf @1:54 PM    Low: 27ºf @7:54 AM     Approx. Precipitation / Rain Total: in.
Time (PST)Temp. (ºf)Humidity (%)Dew Point (ºf)Barometer (inHG)Wind Speed (mph)Wind DirectionWind Gust (mph)1hr. Precip / Rain Total (in.)Snow Depth
11:54 PM483722.98-7.82se13.03--
10:54 PM493119.7-6.95se13.9--
9:54 PM512718.21-7.82se14.77--
8:54 PM542317.05-7.82se18.25--
7:54 PM512819.06-5.21se13.03--
6:54 PM474023.94-1.74s13.03--
5:54 PM503523.44-3.48se10.43--
4:54 PM533123.19-2.61sse12.17--
3:54 PM572622.46-4.34sse13.9--
2:54 PM661415.45-1.74s8.69--
1:54 PM671212.73-2.61s9.56--
12:54 PM661211.95-3.48sse8.69--
11:54 AM612524.93-0.87sw5.21--
10:54 AM543526.97---1.74--
9:54 AM455730.69---1.74--
8:54 AM357427.57---3.48--
7:54 AM278924.2-0.87ne2.61--
6:54 AM288824.91-0.87ne4.34--
5:54 AM288323.52-1.74nne5.21--
4:54 AM278623.38-1.74nne3.48--
3:54 AM288824.91-1.74nne4.34--
2:54 AM288925.19-0.87n3.48--
1:54 AM288925.19-0.87nne4.34--
12:54 AM308526.05-2.61ne4.34--
High: 60ºf @1:54 PM    Low: 30ºf @10:54 PM     Approx. Precipitation / Rain Total: in.
Time (PST)Temp. (ºf)Humidity (%)Dew Point (ºf)Barometer (inHG)Wind Speed (mph)Wind DirectionWind Gust (mph)1hr. Precip / Rain Total (in.)Snow Depth
11:54 PM318426.74-1.74ne3.48--
10:54 PM308526.05-1.74ne3.48--
9:54 PM308626.33-0.87nnw4.34--
8:54 PM318426.74-1.74n4.34--
7:54 PM338027.52-1.74nne3.48--
6:54 PM367428.53-0.87nne3.48--
5:54 PM387129.45-1.74ene3.48--
4:54 PM436632.43---3.48--
3:54 PM515033.02---1.74--
2:54 PM544533.14---5.21--
1:54 PM603632.97-0.87sw3.48--
12:54 PM554332.92-0.87wsw4.34--
11:54 AM485532.61---1.74--
10:54 AM475632.13---3.48--
9:54 AM446733.76---2.61--
8:54 AM387932.08-1.74ne3.48--
7:54 AM339230.93-1.74ne3.48--
6:54 AM368531.94-0.87ne3.48--
5:54 AM358731.53---4.34--
4:54 AM358831.81---3.48--
3:54 AM368431.64-0.87nne4.34--
2:54 AM368632.23-1.74ne3.48--
1:54 AM358631.24-1.74ne4.34--
12:54 AM358631.24-2.61ene4.34--
High: 55ºf @1:54 PM    Low: 32ºf @8:54 PM     Approx. Precipitation / Rain Total: in.
Time (PST)Temp. (ºf)Humidity (%)Dew Point (ºf)Barometer (inHG)Wind Speed (mph)Wind DirectionWind Gust (mph)1hr. Precip / Rain Total (in.)Snow Depth
11:54 PM358530.96-1.74ne4.34--
10:54 PM348730.55-1.74ne3.48--
9:54 PM348730.55-0.87ese3.48--
8:54 PM328929.13---2.61--
7:54 PM328528.01---3.48--
6:54 PM347827.88-0.87ene4.34--
5:54 PM397130.41-0.87ne3.48--
4:54 PM475029.34---5.21--
3:54 PM504227.82-3.48sse8.69--
2:54 PM543526.97-2.61sse9.56--
1:54 PM553225.69-2.61sse11.3--
12:54 PM533123.19-5.21se11.3--
11:54 AM534331.11-2.61se5.21--
10:54 AM465731.63-1.74sse6.08--
9:54 AM427032.94---2.61--
8:54 AM407131.37---2.61--
7:54 AM367729.5---2.61--
6:54 AM406428.82---8.69--
5:54 AM435126.12-2.61se7.82--
4:54 AM395925.9-0.87s6.08--
3:54 AM396026.31-1.74ssw6.08--
2:54 AM366926.83-1.74sse4.34--
1:54 AM376626.71-1.74s5.21--
12:54 AM386125.76-1.74s6.95--
High: 54ºf @1:54 PM    Low: 24ºf @6:54 AM     Approx. Precipitation / Rain Total: in.
Time (PST)Temp. (ºf)Humidity (%)Dew Point (ºf)Barometer (inHG)Wind Speed (mph)Wind DirectionWind Gust (mph)1hr. Precip / Rain Total (in.)Snow Depth
11:54 PM366625.76-1.74ssw6.08--
10:54 PM366525.39-0.87sse3.48--
9:54 PM356825.52-0.87sse5.21--
8:54 PM318527.03---2.61--
7:54 PM318527.03-1.74ne2.61--
6:54 PM356925.87---1.74--
5:54 PM396227.1-0.87sse4.34--
4:54 PM454524.95-0.87sse6.95--
3:54 PM503523.44-1.74s6.95--
2:54 PM533022.41-1.74ssw8.69--
1:54 PM543124.06-1.74sse9.56--
12:54 PM514027.54-2.61sse9.56--
11:54 AM504026.64-1.74s7.82--
10:54 AM474325.68-1.74s6.08--
9:54 AM396026.31-3.48ese4.34--
8:54 AM308425.76-1.74ene4.34--
7:54 AM249422.53-1.74ne4.34--
6:54 AM249222.02-3.48ne5.21--
5:54 AM259022.49-2.61ene5.21--
4:54 AM259323.27-3.48ne5.21--
3:54 AM259624.02-2.61ne4.34--
2:54 AM279224.99-2.61ne4.34--
1:54 AM279224.99-1.74ne5.21--
12:54 AM289326.24-0.87ne5.21--
High: 50ºf @2:54 PM    Low: 23ºf @7:54 AM     Approx. Precipitation / Rain Total: in.
Time (PST)Temp. (ºf)Humidity (%)Dew Point (ºf)Barometer (inHG)Wind Speed (mph)Wind DirectionWind Gust (mph)1hr. Precip / Rain Total (in.)Snow Depth
11:54 PM299126.71-2.61ne5.21--
10:54 PM299126.71-3.48ene6.08--
9:54 PM289627.01-0.87ne7.82--
8:54 PM309629-2.61ne5.21--
7:54 PM309629-1.74ne4.34--
6:54 PM319630-1.74ne3.48--
5:54 PM349031.38-0.87ne3.48--
4:54 PM407231.71---2.61--
3:54 PM455529.82-0.87wsw6.95--
2:54 PM504831.09-0.87ssw6.08--
1:54 PM495533.54-2.61sse6.08--
12:54 PM466434.51-1.74sse5.21--
11:54 AM456333.17-0.87sse3.48--
10:54 AM417132.33---1.74--
9:54 AM378532.92---1.74--
8:54 AM289627.01---1.74--
7:54 AM239822.52---2.61--
6:54 AM249823.52-1.74ne2.61--
5:54 AM249923.76-0.87nne2.61--
4:54 AM259924.76-0.87ne2.61--
3:54 AM2610026-0.87ne3.48--
2:54 AM2610026-1.74ene3.48--
1:54 AM2710027-0.87nne2.61--
12:54 AM2810028-0.87nne2.61--
High: 43ºf @2:54 PM    Low: 29ºf @11:54 PM     Approx. Precipitation / Rain Total: in.
Time (PST)Temp. (ºf)Humidity (%)Dew Point (ºf)Barometer (inHG)Wind Speed (mph)Wind DirectionWind Gust (mph)1hr. Precip / Rain Total (in.)Snow Depth
11:54 PM2910029---2.61--
10:54 PM3110031-0.87nne4.34--
9:54 PM3210032-0.87ne2.61--
8:54 PM3310033-1.74ne3.48--
7:54 PM3510035---1.74--
6:54 PM3610036---2.61--
5:54 PM3810038-0.87ese3.48--
4:54 PM3810038-0.87wnw4.34--
3:54 PM419439.41-0.87sse4.34--
2:54 PM439140.56---4.34--
1:54 PM429340.12-2.61se8.69--
12:54 PM409538.69-4.34se13.03--
11:54 AM428738.42-6.08se12.17--
9:54 AM399437.42-6.08ese11.3--
8:54 AM389636.96-6.08ese10.43--
7:54 AM379836.49-6.08ese10.43--
6:54 AM369835.49-3.48se11.3--
5:54 AM369634.97-6.08ese10.43--
4:54 AM359734.24-6.95ese13.9--
3:54 AM369835.49-7.82ese18.25--
2:54 AM3710037-6.08se17.38--
1:54 AM3810038-7.82se16.51--
12:54 AM3910039-7.82se19.99--
High: 50ºf @1:54 PM    Low: 36ºf @6:54 AM     Approx. Precipitation / Rain Total: in.
Time (PST)Temp. (ºf)Humidity (%)Dew Point (ºf)Barometer (inHG)Wind Speed (mph)Wind DirectionWind Gust (mph)1hr. Precip / Rain Total (in.)Snow Depth
11:54 PM409939.74-6.95se14.77--
10:54 PM419940.74-6.95se13.03--
9:54 PM429239.85-4.34sse16.51--
8:54 PM429340.12-7.82se13.9--
7:54 PM438839.69-6.95ese13.03--
6:54 PM448840.68-6.95ese13.9--
5:54 PM448238.86-5.21ese12.17--
4:54 PM448439.48-6.08ese14.77--
3:54 PM467939.86-7.82se13.9--
2:54 PM497039.65-5.21se13.03--
1:54 PM507140.97-6.08se13.9--
12:54 PM507241.33-6.08se13.9--
11:54 AM487941.8-6.08se13.9--
10:54 AM459343.1-5.21se13.03--
9:54 AM4110041-0.87wsw3.48--
8:54 AM3810038---1.74--
7:54 AM3610036---2.61--
6:54 AM3610036---2.61--
5:54 AM3610036---2.61--
4:54 AM3610036---1.74--
3:54 AM3610036---1.74--
2:54 AM3710037---2.61--
1:54 AM3710037---1.74--
12:54 AM3710037---1.74--
High: 43ºf @12:54 PM    Low: 36ºf @5:54 AM     Approx. Precipitation / Rain Total: in.
Time (PST)Temp. (ºf)Humidity (%)Dew Point (ºf)Barometer (inHG)Wind Speed (mph)Wind DirectionWind Gust (mph)1hr. Precip / Rain Total (in.)Snow Depth
11:54 PM3710037---1.74--
10:54 PM3710037---1.74--
9:54 PM3710037---1.74--
8:54 PM3710037-0.87ne2.61--
7:54 PM3710037-0.87e2.61--
6:54 PM3810038-0.87ene1.74--
5:54 PM4010040---6.08--
4:54 PM4110041-1.74se6.95--
3:54 PM429941.74-3.48se12.17--
2:54 PM429741.21-5.21se11.3--
1:54 PM4210042-5.21se11.3--
12:54 PM439842.47-5.21se9.56--
11:54 AM4210042---2.61--
10:54 AM4110041---1.74--
9:54 AM3910039---1.74--
8:54 AM3710037---1.74--
7:54 AM3710037---4.34--
6:54 AM3710037-0.87s4.34--
5:54 AM3610036---2.61--
4:54 AM3810038---6.08--
3:54 AM3810038-1.74se4.34--
2:54 AM3710037-0.87ene5.21--
1:54 AM399938.74-0.87ssw5.21--
12:54 AM389737.23-0.87nw10.43--
High: 41ºf @1:54 PM    Low: 37ºf @4:54 AM     Approx. Precipitation / Rain Total: in.
Time (PST)Temp. (ºf)Humidity (%)Dew Point (ºf)Barometer (inHG)Wind Speed (mph)Wind DirectionWind Gust (mph)1hr. Precip / Rain Total (in.)Snow Depth
11:54 PM409438.41-3.48se9.56--
10:54 PM409037.31-6.08se11.3--
9:54 PM409137.59-5.21ese9.56--
8:54 PM399337.15-4.34ese11.3--
7:54 PM399537.69-5.21ese11.3--
6:54 PM399437.42-6.08se12.17--
5:54 PM399437.42-6.08ese13.03--
4:54 PM399537.69-6.08ese13.03--
3:54 PM409137.59-6.08ese13.9--
2:54 PM409137.59-6.08se13.9--
1:54 PM418837.72-5.21se13.03--
12:54 PM408836.74-6.08se15.64--
11:54 AM399136.6-6.08ese14.77--
10:54 AM399337.15-6.95ese13.03--
9:54 AM399337.15-3.48sse10.43--
8:54 AM389737.23-3.48sse8.69--
7:54 AM379836.49-1.74e6.95--
6:54 AM379836.49-3.48ene8.69--
5:54 AM379836.49-5.21se13.03--
4:54 AM379736.23-5.21se13.03--
3:54 AM389636.96-5.21se13.03--
2:54 AM389636.96-6.08se13.9--
1:54 AM389636.96-6.95se17.38--
12:54 AM389536.7-8.69ese16.51--
High: 38ºf @9:54 PM    Low: 32ºf @4:54 AM     Approx. Precipitation / Rain Total: in.
Time (PST)Temp. (ºf)Humidity (%)Dew Point (ºf)Barometer (inHG)Wind Speed (mph)Wind DirectionWind Gust (mph)1hr. Precip / Rain Total (in.)Snow Depth
11:54 PM389636.96-8.69ese14.77--
10:54 PM389536.7-7.82ese15.64--
9:54 PM389737.23-6.95ese17.38--
8:54 PM379635.97-6.95e16.51--
7:54 PM379635.97-7.82e16.51--
6:54 PM369634.97-6.08ese12.17--
5:54 PM359433.45-6.08ese13.9--
4:54 PM349632.98-6.08ese18.25--
3:54 PM349733.24-6.95ese13.9--
2:54 PM349733.24-6.95ese14.77--
1:54 PM349532.72-6.95se25.2--
12:54 PM349332.19-7.82se20.86--
11:54 AM349231.92-7.82se19.99--
10:54 AM349432.46-6.95se15.64--
9:54 AM339631.99-6.08se17.38--
8:54 AM339631.99-6.95se15.64--
7:54 AM339732.24-6.08se15.64--
6:54 AM339631.99-6.08se20.86--
5:54 AM339631.99-10.43se22.59--
4:54 AM329731.25-11.3se19.12--
3:54 AM339732.24-9.56se21.72--
2:54 AM339331.2-9.56se19.12--
1:54 AM348229.09-7.82se19.99--
12:54 AM338428.7-6.95se20.86--
High: 36ºf @11:54 AM    Low: 20ºf @12:54 AM     Approx. Precipitation / Rain Total: in.
Time (PST)Temp. (ºf)Humidity (%)Dew Point (ºf)Barometer (inHG)Wind Speed (mph)Wind DirectionWind Gust (mph)1hr. Precip / Rain Total (in.)Snow Depth
11:54 PM338729.56-10.43ese22.59--
10:54 PM329229.94-10.43se19.12--
9:54 PM328828.86-9.56se19.12--
8:54 PM338127.82-8.69se19.12--
7:54 PM337525.96-9.56se17.38--
6:54 PM337525.96-10.43se18.25--
5:54 PM337124.64-11.3se19.12--
4:54 PM337826.9-6.95se15.64--
3:54 PM337626.28-6.95se17.38--
2:54 PM337626.28-6.08se18.25--
1:54 PM347627.24-6.08se15.64--
12:54 PM357226.9-6.95se15.64--
11:54 AM366926.83-6.08se18.25--
10:54 AM366926.83-7.82se16.51--
9:54 AM357026.22-7.82ese14.77--
8:54 AM337224.98-5.21se12.17--
7:54 AM327224.01-7.82se13.9--
6:54 AM327123.68-6.08se13.03--
5:54 AM287320.48-0.87s12.17--
4:54 AM315717.57-3.48sse10.43--
3:54 AM286919.17-3.48sse8.69--
2:54 AM296518.73-4.34sse13.9--
1:54 AM238819.99-0.87se7.82--
12:54 AM209418.56---2.61--
High: 42ºf @11:54 AM    Low: 14ºf @6:54 AM     Approx. Precipitation / Rain Total: in.
Time (PST)Temp. (ºf)Humidity (%)Dew Point (ºf)Barometer (inHG)Wind Speed (mph)Wind DirectionWind Gust (mph)1hr. Precip / Rain Total (in.)Snow Depth
11:54 PM209318.31---4.34--
10:54 PM209418.56-1.74nne3.48--
9:54 PM209218.06---3.48--
8:54 PM219118.79-0.87ne2.61--
7:54 PM238519.18-0.87ene2.61--
6:54 PM268120.99-0.87ene2.61--
5:54 PM287721.74-0.87n6.95--
4:54 PM316821.7-1.74nw7.82--
3:54 PM365420.99-0.87w6.08--
2:54 PM404419.87-1.74wnw6.08--
1:54 PM424220.59-2.61nw6.95--
12:54 PM424019.45-2.61wnw6.95--
11:54 AM424220.59-0.87wnw3.48--
10:54 AM395021.96---2.61--
9:54 AM316620.99-0.87se3.48--
8:54 AM198816.04-1.74ene3.48--
7:54 AM149011.62-1.74ne3.48--
6:54 AM149111.87-1.74ne3.48--
5:54 AM149212.11---3.48--
4:54 AM159012.61-1.74ne2.61--
3:54 AM178713.81-1.74nne3.48--
2:54 AM198615.52-1.74ne4.34--
1:54 AM228518.19-0.87e6.08--
12:54 AM248119.03-2.61ne6.08--
High: 43ºf @11:54 AM    Low: 26ºf @11:54 PM     Approx. Precipitation / Rain Total: in.
Time (PST)Temp. (ºf)Humidity (%)Dew Point (ºf)Barometer (inHG)Wind Speed (mph)Wind DirectionWind Gust (mph)1hr. Precip / Rain Total (in.)Snow Depth
11:54 PM267820.1-2.61ne5.21--
10:54 PM287119.83-1.74nw7.82--
9:54 PM277720.77-1.74nnw10.43--
8:54 PM287220.16-1.74nne13.03--
7:54 PM296819.78-1.74nnw14.77--
6:54 PM306620.04-2.61nnw13.9--
5:54 PM326120.09-4.34nnw13.03--
4:54 PM326421.22-3.48n10.43--
2:54 PM376024.42-2.61nnw8.69--
1:54 PM366023.48-2.61nnw13.03--
12:54 PM404922.4-4.34nnw14.77--
11:54 AM434623.65-4.34-12.17--
10:54 AM405223.81-4.34n13.03--
9:54 AM394921.48-4.34nw14.77--
8:54 AM345820.8-4.34nnw13.9--
7:54 AM316721.35-3.48n12.17--
6:54 AM317122.72-2.61nnw7.82--
5:54 AM307222.09-1.74nnw6.08--
4:54 AM316922.04-1.74nnw9.56--
3:54 AM326621.95-3.48n10.43--
2:54 AM326822.65-2.61nnw12.17--
1:54 AM279224.99-1.74wnw7.82--
12:54 AM2610026---1.74--
High: 40ºf @11:54 AM    Low: 14ºf @2:54 AM     Approx. Precipitation / Rain Total: in.
Time (PST)Temp. (ºf)Humidity (%)Dew Point (ºf)Barometer (inHG)Wind Speed (mph)Wind DirectionWind Gust (mph)1hr. Precip / Rain Total (in.)Snow Depth
11:54 PM279926.76---3.48--
10:54 PM299728.26---2.61--
9:54 PM309829.5---3.48--
8:54 PM3010030---1.74--
7:54 PM309929.75---1.74--
6:54 PM309929.75---0.87--
5:54 PM299527.75---6.95--
4:54 PM328728.58-3.48se6.95--
3:54 PM348128.79-2.61sse6.95--
2:54 PM357828.85-2.61se11.3--
1:54 PM386527.3-4.34se12.17--
12:54 PM396528.25-3.48sse10.43--
11:54 AM406228.05-0.87sw6.95--
10:54 AM357828.85-1.74sse6.08--
9:54 AM328126.84---2.61--
8:54 AM239321.28---1.74--
7:54 AM239622.03---1.74--
6:54 AM239521.79---1.74--
5:54 AM229520.79---1.74--
4:54 AM209518.8-0.87ne2.61--
3:54 AM179315.33---3.48--
2:54 AM149111.87---3.48--
1:54 AM169214.09-0.87ne3.48--
12:54 AM169314.34-2.61ne3.48--
High: 37ºf @2:54 PM    Low: 17ºf @11:54 PM     Approx. Precipitation / Rain Total: in.
Time (PST)Temp. (ºf)Humidity (%)Dew Point (ºf)Barometer (inHG)Wind Speed (mph)Wind DirectionWind Gust (mph)1hr. Precip / Rain Total (in.)Snow Depth
11:54 PM179215.09-2.61nne3.48--
10:54 PM189316.32-1.74ne4.34--
9:54 PM209318.31-1.74ne3.48--
8:54 PM239321.28-2.61ne3.48--
7:54 PM259724.27-0.87ese2.61--
6:54 PM259523.77-0.87nne4.34--
5:54 PM289727.26---1.74--
4:54 PM328528.01---1.74--
3:54 PM357427.57-0.87wsw4.34--
2:54 PM377028.14---2.61--
1:54 PM347526.92-0.87ssw3.48--
12:54 PM377128.49-0.87ssw4.34--
11:54 AM357628.21-1.74sse5.21--
10:54 AM338729.56---2.61--
9:54 AM319128.69---2.61--
8:54 AM289627.01---0.87--
7:54 AM279826.51---3.48--
6:54 AM279826.51---2.61--
5:54 AM279826.51---2.61--
4:54 AM279626.01---3.48--
3:54 AM298324.5-2.61se8.69--
2:54 AM298424.78-4.34ese10.43--
1:54 AM298625.35-6.08ese10.43--
12:54 AM298324.5-6.08ese12.17--
High: 31ºf @1:54 PM    Low: 22ºf @2:54 AM     Approx. Precipitation / Rain Total: in.
Time (PST)Temp. (ºf)Humidity (%)Dew Point (ºf)Barometer (inHG)Wind Speed (mph)Wind DirectionWind Gust (mph)1hr. Precip / Rain Total (in.)Snow Depth
11:54 PM298926.17-5.21ese10.43--
10:54 PM289025.45-6.08ese11.3--
9:54 PM298825.9-6.08ese12.17--
8:54 PM288824.91-5.21ese11.3--
7:54 PM289225.98-6.08se12.17--
6:54 PM289125.72-5.21se13.03--
5:54 PM288925.19-6.95se13.9--
4:54 PM298625.35-5.21se11.3--
3:54 PM298525.07-6.08se13.03--
2:54 PM308425.76-5.21se12.17--
1:54 PM318125.87-5.21se12.17--
12:54 PM318025.57-4.34se10.43--
11:54 AM307924.29-2.61sse9.56--
10:54 AM297923.32-1.74sse7.82--
9:54 AM278523.1-1.74sse4.34--
8:54 AM269023.48---1.74--
7:54 AM249322.28---3.48--
6:54 AM248921.24-1.74s7.82--
5:54 AM239521.79-0.87s3.48--
4:54 AM239622.03---1.74--
3:54 AM229520.79---1.74--
2:54 AM229420.54---1.74--
1:54 AM238920.25---2.61--
12:54 AM238719.72---2.61--
High: 32ºf @1:54 PM    Low: 22ºf @8:54 PM     Approx. Precipitation / Rain Total: in.
Time (PST)Temp. (ºf)Humidity (%)Dew Point (ºf)Barometer (inHG)Wind Speed (mph)Wind DirectionWind Gust (mph)1hr. Precip / Rain Total (in.)Snow Depth
11:54 PM238619.45---1.74--
10:54 PM238519.18---1.74--
9:54 PM237917.48---3.48--
8:54 PM228217.36-0.87nw3.48--
7:54 PM228016.79-0.87wnw6.08--
6:54 PM237616.58---6.08--
5:54 PM256314.21-0.87nnw6.08--
4:54 PM266014.05-1.74nnw10.43--
3:54 PM295314.04-3.48nnw13.9--
2:54 PM315617.17-2.61nnw10.43--
1:54 PM325718.51-2.61nw12.17--
12:54 PM326320.85-2.61nnw12.17--
11:54 AM316520.63-4.34nnw12.17--
10:54 AM316520.63-4.34nw9.56--
9:54 AM297823.02-0.87w11.3--
8:54 AM288223.23-2.61nw7.82--
7:54 AM279525.76-0.87wnw4.34--
6:54 AM289927.76-0.87n3.48--
5:54 AM289927.76---2.61--
4:54 AM299828.51---2.61--
3:54 AM299728.26-0.87e6.95--
2:54 AM309528.74-3.48ese9.56--
1:54 AM309629-3.48se9.56--
12:54 AM309629-3.48ese9.56--
High: 30ºf @3:54 PM    Low: 21ºf @2:54 AM     Approx. Precipitation / Rain Total: in.
Time (PST)Temp. (ºf)Humidity (%)Dew Point (ºf)Barometer (inHG)Wind Speed (mph)Wind DirectionWind Gust (mph)1hr. Precip / Rain Total (in.)Snow Depth
11:54 PM309528.74-4.34ese7.82--
10:54 PM309528.74-3.48ese9.56--
9:54 PM309428.49-2.61ese7.82--
8:54 PM309528.74-1.74se8.69--
7:54 PM309428.49-3.48ese7.82--
6:54 PM309629-1.74ese6.95--
5:54 PM309528.74-2.61se6.95--
4:54 PM299527.75-4.34ese9.56--
3:54 PM309428.49-5.21ese10.43--
2:54 PM309027.43-5.21ese10.43--
1:54 PM308626.33-6.95ese12.17--
12:54 PM308425.76-6.08ese12.17--
11:54 AM298525.07-5.21se16.51--
10:54 AM288724.64-8.69se17.38--
9:54 AM268923.21-7.82se16.51--
8:54 AM268722.67-5.21se12.17--
7:54 AM258922.23-6.08se12.17--
6:54 AM248921.24-4.34ese7.82--
5:54 AM258821.96-2.61ese6.95--
4:54 AM239421.54-0.87ne4.34--
3:54 AM229420.54-2.61ene4.34--
2:54 AM219620.04---3.48--
1:54 AM239722.28-0.87n5.21--
12:54 AM259624.02-0.87s2.61--
High: 44ºf @1:54 PM    Low: 26ºf @10:54 PM     Approx. Precipitation / Rain Total: in.
Time (PST)Temp. (ºf)Humidity (%)Dew Point (ºf)Barometer (inHG)Wind Speed (mph)Wind DirectionWind Gust (mph)1hr. Precip / Rain Total (in.)Snow Depth
11:54 PM279425.51-0.87w5.21--
10:54 PM269123.74---7.82--
9:54 PM279124.73---3.48--
8:54 PM299327.23---6.08--
7:54 PM309528.74---8.69--
6:54 PM318727.59-3.48se8.69--
5:54 PM309227.96---4.34--
4:54 PM327224.01-1.74se4.34--
3:54 PM357126.56-1.74ssw6.95--
2:54 PM397030.06-0.87ese6.95--
1:54 PM446231.83---6.08--
12:54 PM427133.29-0.87sw4.34--
11:54 AM378432.62---2.61--
10:54 AM349432.46---3.48--
9:54 AM359232.92---0.87--
8:54 AM3210032------
7:54 AM319830.5---5.21--
6:54 AM319630-2.61ese9.56--
5:54 AM319930.75-4.34se9.56--
4:54 AM319930.75-4.34se12.17--
3:54 AM319830.5-5.21ese11.3--
2:54 AM319930.75-5.21ese9.56--
1:54 AM329931.75-3.48se8.69--
12:54 AM329931.75-2.61ese7.82--
High: 38ºf @11:54 AM    Low: 28ºf @7:54 AM     Approx. Precipitation / Rain Total: in.
Time (PST)Temp. (ºf)Humidity (%)Dew Point (ºf)Barometer (inHG)Wind Speed (mph)Wind DirectionWind Gust (mph)1hr. Precip / Rain Total (in.)Snow Depth
11:54 PM329831.5-2.61ese9.56--
10:54 PM329931.75-3.48se8.69--
9:54 PM329731.25-5.21se9.56--
8:54 PM329931.75-5.21ese9.56--
7:54 PM329831.5-4.34ese7.82--
6:54 PM329731.25-4.34se10.43--
5:54 PM329630.99-2.61se7.82--
4:54 PM339331.2-0.87s6.08--
3:54 PM339631.99-0.87ese6.95--
2:54 PM358831.81-0.87sw6.95--
1:54 PM359132.64-2.61ese8.69--
12:54 PM348931.11-3.48ese8.69--
11:54 AM387831.76-2.61sse13.03--
10:54 AM367528.86-6.08se14.77--
9:54 AM367528.86-6.95ese13.03--
8:54 AM319028.42-0.87s3.48--
7:54 AM2810028-0.87ene3.48--
6:54 AM309829.5---3.48--
5:54 AM319730.25-0.87nnw5.21--
4:54 AM3310033-1.74wnw5.21--
3:54 AM3310033---4.34--
2:54 AM3310033-0.87sw7.82--
1:54 AM3610036-0.87sse5.21--
12:54 AM3610036-1.74se6.08--
High: 36ºf @5:54 PM    Low: 35ºf @7:54 PM     Approx. Precipitation / Rain Total: in.
Time (PST)Temp. (ºf)Humidity (%)Dew Point (ºf)Barometer (inHG)Wind Speed (mph)Wind DirectionWind Gust (mph)1hr. Precip / Rain Total (in.)Snow Depth
11:54 PM3610036-0.87se4.34--
10:54 PM3610036---2.61--
9:54 PM3610036---3.48--
8:54 PM3510035---1.74--
7:54 PM3510035---1.74--
6:54 PM3610036---1.74--
5:54 PM3610036---2.61--
Past Weather Disclaimer Note regarding "Approx. Precipitation / Rain Total"

Currently

Fair 46°F
30.41in
Barometer
63%
Humidity
Northwest 5.8mph
Wind
Fair

Past Weather Nearby

More Local Information

Bookmark and Share

Go Ad Free - Become a Member